CCA282 EGLL-EPWA
Flight info
| Callsign | CCA282 |
|---|---|
| Flight time | N/A |
| Altitude | 39000 |
| Route | BPK Q295 MATCH DCT REDFA DCT TACHA DCT GARLU DCT ALUKA DCT EKBUT L619 DENKO P851 BIMPA |
| Aircraft | A333/H-SDE3GHIJ2J3J5M1RVWXY/LB2D1 |
Departure
| Time | 2026-05-06 11:27 |
|---|---|
| Airport | London Heathrow Airport (EGLL) |
Arrival
| Time | N/A |
|---|---|
| Airport | Warsaw Chopin Airport (EPWA) |
| Time | Latitude | Longitude | Altitude | Speed | Heading |
|---|---|---|---|---|---|
| 2026-05-06 11:07 | 51.46980 | -0.48014 | 95 ft | 0 kts | 269° |
| 2026-05-06 11:18 | 51.46980 | -0.48010 | 93 ft | 2 kts | 269° |
| 2026-05-06 11:19 | 51.46981 | -0.47984 | 95 ft | 2 kts | 262° |
| 2026-05-06 11:19 | 51.46984 | -0.47958 | 94 ft | 2 kts | 253° |
| 2026-05-06 11:19 | 51.46990 | -0.47933 | 93 ft | 2 kts | 242° |
| 2026-05-06 11:19 | 51.46999 | -0.47911 | 96 ft | 2 kts | 229° |
| 2026-05-06 11:20 | 51.47010 | -0.47893 | 95 ft | 2 kts | 214° |
| 2026-05-06 11:20 | 51.47025 | -0.47880 | 92 ft | 2 kts | 201° |
| 2026-05-06 11:20 | 51.47040 | -0.47872 | 95 ft | 2 kts | 190° |
| 2026-05-06 11:20 | 51.47056 | -0.47869 | 93 ft | 2 kts | 182° |
| 2026-05-06 11:21 | 51.47063 | -0.47869 | 93 ft | 0 kts | 180° |
| 2026-05-06 11:23 | 51.47029 | -0.47869 | 92 ft | 10 kts | 180° |
| 2026-05-06 11:23 | 51.46925 | -0.47870 | 93 ft | 17 kts | 180° |
| 2026-05-06 11:23 | 51.46800 | -0.47869 | 94 ft | 18 kts | 179° |
| 2026-05-06 11:23 | 51.46744 | -0.47987 | 94 ft | 15 kts | 268° |
| 2026-05-06 11:24 | 51.46743 | -0.48147 | 95 ft | 14 kts | 269° |
| 2026-05-06 11:24 | 51.46743 | -0.48292 | 99 ft | 14 kts | 270° |
| 2026-05-06 11:24 | 51.46743 | -0.48493 | 96 ft | 22 kts | 267° |
| 2026-05-06 11:24 | 51.46706 | -0.48730 | 101 ft | 21 kts | 214° |
| 2026-05-06 11:25 | 51.46575 | -0.48778 | 97 ft | 20 kts | 194° |
| 2026-05-06 11:25 | 51.46488 | -0.48732 | 100 ft | 11 kts | 128° |
| 2026-05-06 11:25 | 51.46476 | -0.48642 | 99 ft | 0 kts | 90° |
| 2026-05-06 11:25 | 51.46476 | -0.48629 | 98 ft | 2 kts | 90° |
| 2026-05-06 11:26 | 51.46476 | -0.48588 | 98 ft | 10 kts | 90° |
| 2026-05-06 11:26 | 51.46479 | -0.48183 | 97 ft | 66 kts | 88° |
| 2026-05-06 11:26 | 51.46488 | -0.47137 | 96 ft | 121 kts | 90° |
| 2026-05-06 11:26 | 51.46496 | -0.45528 | 210 ft | 161 kts | 86° |
| 2026-05-06 11:27 | 51.46457 | -0.43698 | 807 ft | 162 kts | 84° |
| 2026-05-06 11:27 | 51.46604 | -0.41936 | 1490 ft | 164 kts | 67° |
| 2026-05-06 11:27 | 51.47243 | -0.40251 | 1835 ft | 191 kts | 48° |
| 2026-05-06 11:27 | 51.48194 | -0.38560 | 2216 ft | 216 kts | 44° |
| 2026-05-06 11:28 | 51.49254 | -0.36750 | 2639 ft | 228 kts | 45° |
| 2026-05-06 11:28 | 51.50334 | -0.34876 | 3173 ft | 235 kts | 45° |
| 2026-05-06 11:28 | 51.51424 | -0.32891 | 3795 ft | 239 kts | 51° |
| 2026-05-06 11:28 | 51.52179 | -0.30489 | 4449 ft | 244 kts | 65° |
| 2026-05-06 11:29 | 51.52757 | -0.27907 | 5130 ft | 246 kts | 66° |
| 2026-05-06 11:29 | 51.53316 | -0.25275 | 5708 ft | 252 kts | 66° |
| 2026-05-06 11:29 | 51.53903 | -0.22531 | 5934 ft | 267 kts | 66° |
| 2026-05-06 11:29 | 51.54743 | -0.19904 | 5986 ft | 261 kts | 45° |
| 2026-05-06 11:30 | 51.56198 | -0.18343 | 5991 ft | 250 kts | 13° |
| 2026-05-06 11:30 | 51.57911 | -0.17961 | 6019 ft | 250 kts | 3° |
| 2026-05-06 11:30 | 51.59641 | -0.17569 | 6014 ft | 252 kts | 11° |
| 2026-05-06 11:30 | 51.61349 | -0.16889 | 6016 ft | 253 kts | 12° |
| 2026-05-06 11:31 | 51.63052 | -0.16175 | 6022 ft | 253 kts | 13° |
| 2026-05-06 11:31 | 51.64755 | -0.15426 | 6017 ft | 253 kts | 14° |
| 2026-05-06 11:31 | 51.66427 | -0.14664 | 6019 ft | 254 kts | 15° |
| 2026-05-06 11:31 | 51.68053 | -0.13518 | 6017 ft | 255 kts | 30° |
| 2026-05-06 11:32 | 51.69375 | -0.11602 | 6185 ft | 261 kts | 51° |
| 2026-05-06 11:32 | 51.70112 | -0.08884 | 6692 ft | 274 kts | 77° |
| 2026-05-06 11:32 | 51.69966 | -0.05792 | 7464 ft | 284 kts | 107° |
| 2026-05-06 11:32 | 51.68857 | -0.03125 | 8246 ft | 293 kts | 139° |
| 2026-05-06 11:33 | 51.67030 | -0.01685 | 8982 ft | 297 kts | 168° |
| 2026-05-06 11:33 | 51.65009 | -0.01215 | 9759 ft | 298 kts | 178° |
| 2026-05-06 11:33 | 51.62927 | -0.01151 | 10437 ft | 303 kts | 183° |
| 2026-05-06 11:33 | 51.60743 | -0.01251 | 10720 ft | 322 kts | 182° |
| 2026-05-06 11:34 | 51.58429 | -0.01298 | 10980 ft | 341 kts | 180° |
| 2026-05-06 11:34 | 51.56049 | -0.00681 | 11216 ft | 361 kts | 160° |
| 2026-05-06 11:34 | 51.53837 | 0.01360 | 11583 ft | 374 kts | 139° |
| 2026-05-06 11:34 | 51.52188 | 0.04590 | 12292 ft | 375 kts | 118° |
| 2026-05-06 11:35 | 51.51344 | 0.08501 | 13146 ft | 372 kts | 98° |
| 2026-05-06 11:35 | 51.51336 | 0.12664 | 13678 ft | 377 kts | 80° |
| 2026-05-06 11:35 | 51.51864 | 0.16811 | 14225 ft | 381 kts | 75° |
| 2026-05-06 11:35 | 51.52486 | 0.20965 | 14857 ft | 384 kts | 75° |
| 2026-05-06 11:36 | 51.53118 | 0.25165 | 15378 ft | 389 kts | 75° |
| 2026-05-06 11:36 | 51.53764 | 0.29400 | 16020 ft | 391 kts | 75° |
| 2026-05-06 11:36 | 51.54336 | 0.33116 | 16529 ft | 394 kts | 75° |
| 2026-05-06 11:36 | 51.54770 | 0.35947 | 16973 ft | 394 kts | 75° |
| 2026-05-06 11:37 | 51.55431 | 0.40255 | 17443 ft | 402 kts | 75° |
| 2026-05-06 11:37 | 51.56279 | 0.46282 | 16637 ft | 439 kts | 77° |
| 2026-05-06 11:37 | 51.57187 | 0.51268 | 15585 ft | 481 kts | 64° |
| 2026-05-06 11:37 | 51.58396 | 0.53962 | 16326 ft | 419 kts | 48° |
| 2026-05-06 11:38 | 51.60046 | 0.56899 | 14102 ft | 254 kts | 40° |
| 2026-05-06 11:38 | 51.61454 | 0.59106 | 3708 ft | 218 kts | 44° |